Time;durP1;ratioP1;P1;durP2;ratioP2;P2;SDS_P1;SDS_P2;PMS_P1;PMS_P2;Temp;Humidity;BMP_temperature;BMP_pressure;BME280_temperature;BME280_humidity;BME280_pressure;Samples;Min_cycle;Max_cycle;Signal;HPM_P1;HPM_P2
2021/03/26 00:01:01;;;;;;;240.83;132.63;;;;;;;0.84;75.15;99504.37;113842;1199;64410;-76
2021/03/26 00:03:31;;;;;;;217.30;124.53;;;;;;;0.86;75.10;99497.34;113670;1200;64339;-76
2021/03/26 00:06:21;;;;;;;216.77;121.13;;;;;;;0.83;75.05;99498.27;113892;1199;64308;-76
2021/03/26 00:08:48;;;;;;;226.53;129.97;;;;;;;0.76;74.94;99498.41;113835;1200;64368;-76
2021/03/26 00:11:16;;;;;;;224.53;128.50;;;;;;;0.74;75.08;99506.33;113718;1200;64372;-76
2021/03/26 00:13:42;;;;;;;224.93;130.90;;;;;;;0.69;75.07;99504.69;113806;1200;64407;-75
2021/03/26 00:16:10;;;;;;;228.07;131.43;;;;;;;0.62;74.93;99504.78;113817;1198;64343;-75
2021/03/26 00:18:39;;;;;;;225.27;130.33;;;;;;;0.59;75.29;99506.60;113851;1200;64375;-76
2021/03/26 00:21:06;;;;;;;218.43;131.27;;;;;;;0.55;75.33;99508.39;113656;1199;64424;-76
2021/03/26 00:23:33;;;;;;;225.97;135.20;;;;;;;0.57;75.51;99509.23;113979;1200;64374;-77
2021/03/26 00:26:01;;;;;;;241.23;135.63;;;;;;;0.58;75.67;99507.48;113859;1198;64700;-76
2021/03/26 00:28:28;;;;;;;251.17;143.83;;;;;;;0.52;75.47;99513.70;113604;1200;64430;-76
2021/03/26 00:30:55;;;;;;;258.43;146.03;;;;;;;0.52;75.83;99520.70;113822;1200;64304;-76
2021/03/26 00:33:21;;;;;;;280.20;158.75;;;;;;;0.54;76.25;99511.92;113805;1200;64643;-76
2021/03/26 00:35:48;;;;;;;279.73;161.10;;;;;;;0.56;76.28;99499.66;113575;1200;64378;-76
2021/03/26 00:38:16;;;;;;;247.80;142.03;;;;;;;0.61;76.30;99513.55;113837;1200;64352;-77
2021/03/26 00:40:43;;;;;;;225.47;133.70;;;;;;;0.64;76.07;99503.00;113740;1199;64305;-76
2021/03/26 00:43:09;;;;;;;244.45;143.20;;;;;;;0.61;75.77;99512.69;113634;1199;64401;-76
2021/03/26 00:45:37;;;;;;;239.30;137.15;;;;;;;0.57;76.11;99514.48;113751;1198;64352;-76
2021/03/26 00:48:05;;;;;;;233.07;135.93;;;;;;;0.51;75.61;99509.36;113819;1200;64468;-76
2021/03/26 00:50:36;;;;;;;224.63;131.43;;;;;;;0.46;75.56;99512.96;113820;1200;64381;-76
2021/03/26 00:53:06;;;;;;;226.97;132.47;;;;;;;0.39;75.70;99520.91;113643;1200;64446;-76
2021/03/26 00:55:33;;;;;;;221.70;135.50;;;;;;;0.35;75.79;99507.91;113698;1200;64481;-76
2021/03/26 00:58:00;;;;;;;241.10;139.40;;;;;;;0.35;75.78;99511.39;113778;1199;64471;-76
2021/03/26 01:00:28;;;;;;;258.13;143.37;;;;;;;0.30;75.87;99515.84;113636;1199;64497;-76
2021/03/26 01:02:55;;;;;;;272.30;152.10;;;;;;;0.28;76.07;99506.27;113858;1200;64308;-76
2021/03/26 01:05:29;;;;;;;288.73;160.40;;;;;;;0.24;76.11;99509.82;113831;1200;64375;-76
2021/03/26 01:07:56;;;;;;;266.07;149.47;;;;;;;0.22;76.20;99504.63;113627;1199;64499;-76
2021/03/26 01:10:27;;;;;;;265.20;150.87;;;;;;;0.31;77.02;99506.22;113826;1200;64484;-76
2021/03/26 01:12:54;;;;;;;277.43;154.37;;;;;;;0.41;76.46;99511.27;113656;1200;64352;-76
2021/03/26 01:15:24;;;;;;;266.95;150.60;;;;;;;0.43;76.26;99512.12;113598;1200;64356;-76
2021/03/26 01:17:51;;;;;;;278.40;151.50;;;;;;;0.35;76.00;99508.77;113646;1199;64420;-75
2021/03/26 01:20:23;;;;;;;276.13;155.33;;;;;;;0.29;76.19;99508.88;113806;1199;64397;-75
2021/03/26 01:22:50;;;;;;;256.05;144.70;;;;;;;0.37;76.33;99512.23;113887;1200;64413;-76
2021/03/26 01:25:20;;;;;;;252.57;144.77;;;;;;;0.35;76.13;99503.52;113582;1200;64442;-76
2021/03/26 01:27:47;;;;;;;271.28;154.83;;;;;;;0.31;75.98;99504.45;113794;1200;64452;-76
2021/03/26 01:30:16;;;;;;;279.50;158.00;;;;;;;0.25;76.07;99514.19;113852;1200;64369;-77
2021/03/26 01:32:43;;;;;;;285.98;160.80;;;;;;;0.18;76.31;99508.17;113603;1199;64365;-76
2021/03/26 01:35:11;;;;;;;295.50;165.47;;;;;;;0.15;76.24;99506.47;113648;1200;64633;-76
2021/03/26 01:37:38;;;;;;;264.20;151.37;;;;;;;0.13;76.37;99502.14;113841;1200;64534;-76
2021/03/26 01:40:08;;;;;;;277.50;160.50;;;;;;;0.09;76.38;99503.95;113795;1198;64416;-76
2021/03/26 01:42:36;;;;;;;;;;;;;;;0.07;76.30;99503.11;113820;1205;64366;-76
2021/03/26 01:45:19;;;;;;;281.27;156.93;;;;;;;0.04;76.43;99504.92;113653;1200;64458;-76
2021/03/26 01:47:46;;;;;;;264.80;150.83;;;;;;;-0.03;76.25;99512.89;113633;1200;64385;-77
2021/03/26 01:50:17;;;;;;;263.97;152.10;;;;;;;-0.08;76.25;99506.86;113810;1199;64391;-76
2021/03/26 01:52:44;;;;;;;275.73;155.55;;;;;;;-0.11;76.51;99509.50;113899;1200;64388;-76
2021/03/26 01:55:21;;;;;;;291.80;169.87;;;;;;;-0.09;76.54;99512.97;113781;1200;64336;-76
2021/03/26 01:57:47;;;;;;;276.80;159.90;;;;;;;-0.09;76.63;99510.35;113655;1200;64583;-76
2021/03/26 02:00:22;;;;;;;280.73;152.27;;;;;;;-0.11;76.50;99509.50;113771;1200;64349;-76
2021/03/26 02:02:50;;;;;;;269.83;151.90;;;;;;;-0.15;76.73;99510.45;113639;1200;64445;-76
2021/03/26 02:05:24;;;;;;;247.27;144.73;;;;;;;-0.18;76.23;99507.03;113831;1200;64474;-76
2021/03/26 02:07:52;;;;;;;252.87;147.77;;;;;;;-0.22;76.34;99509.66;113816;1200;64452;-76
2021/03/26 02:10:20;;;;;;;278.17;158.40;;;;;;;-0.26;76.33;99505.38;113828;1200;64404;-76
2021/03/26 02:12:48;;;;;;;269.53;160.13;;;;;;;-0.27;76.51;99508.01;113815;1198;64381;-76
2021/03/26 02:15:21;;;;;;;281.53;161.47;;;;;;;-0.28;76.67;99514.15;113777;1199;64470;-77
2021/03/26 02:17:48;;;;;;;298.25;167.75;;;;;;;-0.29;76.91;99512.39;113613;1200;64496;-75
2021/03/26 02:20:27;;;;;;;307.93;171.70;;;;;;;-0.31;76.54;99516.81;113621;1200;64462;-75
2021/03/26 02:22:57;;;;;;;322.87;182.17;;;;;;;-0.28;77.42;99528.10;113609;1200;64438;-75
2021/03/26 02:25:26;;;;;;;315.63;178.60;;;;;;;-0.19;77.25;99526.23;113799;1200;64429;-75
2021/03/26 02:27:52;;;;;;;316.63;181.57;;;;;;;-0.17;77.19;99529.70;113842;1200;64387;-76
2021/03/26 02:30:25;;;;;;;293.15;168.40;;;;;;;-0.16;77.17;99521.80;113779;1200;64359;-76
2021/03/26 02:32:54;;;;;;;292.57;169.80;;;;;;;-0.14;77.15;99525.27;113682;1200;64343;-76
2021/03/26 02:35:34;;;;;;;291.30;168.03;;;;;;;-0.13;76.99;99527.02;113879;1199;64375;-76
2021/03/26 02:38:33;;;;;;;281.10;165.25;;;;;;;-0.11;77.27;99522.59;113889;1199;64359;-75
2021/03/26 02:41:13;;;;;;;278.97;160.83;;;;;;;-0.01;77.20;99525.95;113801;1200;64404;-76
2021/03/26 02:44:05;;;;;;;270.80;158.50;;;;;;;0.03;77.14;99524.14;113900;1199;64368;-77
2021/03/26 02:46:49;;;;;;;256.50;150.93;;;;;;;-0.01;76.93;99520.71;113900;1200;64410;-77
2021/03/26 02:49:54;;;;;;;261.90;156.60;;;;;;;-0.04;77.01;99516.39;113788;1198;64375;-76
2021/03/26 02:52:43;;;;;;;265.33;153.60;;;;;;;-0.08;76.81;99527.82;113811;1200;64528;-76
2021/03/26 02:55:22;;;;;;;260.63;152.20;;;;;;;-0.09;76.72;99523.45;113809;1200;64371;-76
2021/03/26 02:57:57;;;;;;;259.17;146.43;;;;;;;-0.13;76.55;99529.64;113838;1200;64419;-76
2021/03/26 03:01:10;;;;;;;257.30;149.57;;;;;;;-0.16;76.79;99534.90;113847;1200;64340;-76
2021/03/26 03:03:38;;;;;;;269.55;157.40;;;;;;;-0.24;76.77;99534.15;113773;1200;64394;-76
2021/03/26 03:06:28;;;;;;;272.60;158.93;;;;;;;-0.26;76.84;99538.56;113684;1200;64577;-76
2021/03/26 03:08:57;;;;;;;264.30;152.80;;;;;;;-0.28;76.93;99535.09;113633;1200;64317;-75
2021/03/26 03:11:30;;;;;;;;;;;;;;;-0.34;76.88;99541.30;113838;1204;64732;-76
2021/03/26 03:13:56;;;;;;;243.95;143.40;;;;;;;-0.41;77.32;99541.40;113805;1200;64439;-76
2021/03/26 03:16:31;;;;;;;248.50;148.23;;;;;;;-0.43;76.87;99545.78;113782;1199;64365;-76
2021/03/26 03:19:08;;;;;;;273.03;153.70;;;;;;;-0.47;77.05;99540.59;113793;1200;64541;-76
2021/03/26 03:21:42;;;;;;;254.73;150.27;;;;;;;-0.51;76.82;99543.27;113819;1200;64435;-76
2021/03/26 03:24:17;;;;;;;250.50;143.20;;;;;;;-0.54;76.95;99548.55;113633;1199;64397;-76
2021/03/26 03:27:02;;;;;;;257.80;151.03;;;;;;;-0.56;76.77;99548.55;113583;1199;64346;-76
2021/03/26 03:29:41;;;;;;;273.20;157.47;;;;;;;-0.60;76.93;99549.49;113784;1200;64333;-76
2021/03/26 03:32:10;;;;;;;276.50;158.97;;;;;;;-0.63;77.03;99552.16;113786;1199;64372;-76
2021/03/26 03:34:41;;;;;;;271.70;161.07;;;;;;;-0.67;77.06;99553.92;113651;1199;64446;-76
2021/03/26 03:37:31;;;;;;;272.07;163.97;;;;;;;-0.68;77.46;99546.97;113603;1200;64835;-76
2021/03/26 03:40:05;;;;;;;266.27;154.03;;;;;;;-0.67;77.62;99555.68;113835;1199;64426;-76
2021/03/26 03:42:58;;;;;;;263.97;151.90;;;;;;;-0.70;77.16;99558.34;113851;1200;64318;-76
2021/03/26 03:45:39;;;;;;;278.00;163.03;;;;;;;-0.75;77.20;99552.30;113793;1199;66130;-76
2021/03/26 03:48:13;;;;;;;285.60;172.40;;;;;;;-0.78;77.55;99547.97;113601;1200;64493;-76
2021/03/26 03:50:44;;;;;;;285.83;169.83;;;;;;;-0.70;77.82;99547.88;113808;1200;64451;-76
2021/03/26 03:53:23;;;;;;;276.90;164.50;;;;;;;-0.66;77.94;99546.94;113911;1200;64404;-76
2021/03/26 03:56:04;;;;;;;269.65;164.45;;;;;;;-0.65;77.73;99548.69;113831;1199;64369;-76
2021/03/26 03:58:36;;;;;;;289.73;176.93;;;;;;;-0.61;77.71;99546.88;113800;1199;64368;-77
2021/03/26 04:01:15;;;;;;;289.50;171.77;;;;;;;-0.60;77.52;99549.49;113816;1199;64414;-77
2021/03/26 04:03:54;;;;;;;282.80;166.07;;;;;;;-0.52;77.55;99547.64;113852;1200;64422;-76
2021/03/26 04:06:28;;;;;;;284.40;166.57;;;;;;;-0.47;77.47;99551.06;113801;1200;64484;-76
2021/03/26 04:09:00;;;;;;;283.70;172.40;;;;;;;-0.48;77.49;99558.92;113833;1200;64404;-76
2021/03/26 04:11:32;;;;;;;310.20;185.75;;;;;;;-0.47;77.71;99558.92;113818;1200;64590;-76
2021/03/26 04:14:06;;;;;;;304.07;182.70;;;;;;;-0.43;78.07;99556.25;113796;1200;64356;-76
2021/03/26 04:16:36;;;;;;;295.07;175.90;;;;;;;-0.45;77.75;99548.41;113813;1200;64483;-75
2021/03/26 04:19:14;;;;;;;289.83;167.93;;;;;;;-0.43;77.73;99553.64;113691;1200;64430;-76
2021/03/26 04:21:44;;;;;;;285.55;173.95;;;;;;;-0.47;77.53;99556.30;113657;1199;64359;-76
2021/03/26 04:24:17;;;;;;;303.33;181.53;;;;;;;-0.50;77.34;99555.45;113801;1200;64953;-76
2021/03/26 04:26:47;;;;;;;297.70;177.00;;;;;;;-0.54;77.87;99567.73;113879;1199;64330;-77
2021/03/26 04:29:35;;;;;;;278.10;170.80;;;;;;;-0.55;77.77;99560.77;113910;1200;64378;-76
2021/03/26 04:32:09;;;;;;;272.30;164.20;;;;;;;-0.53;77.99;99561.59;113591;1200;64381;-75
2021/03/26 04:34:40;;;;;;;281.17;165.90;;;;;;;-0.48;77.92;99564.16;113854;1199;64311;-75
2021/03/26 04:37:20;;;;;;;282.43;170.47;;;;;;;-0.42;77.96;99568.45;113645;1200;64382;-76
2021/03/26 04:39:53;;;;;;;286.03;171.33;;;;;;;-0.46;77.77;99568.49;113823;1199;64403;-76
2021/03/26 04:42:57;;;;;;;277.57;164.77;;;;;;;-0.39;77.93;99565.81;113812;1200;64371;-76
2021/03/26 04:45:33;;;;;;;272.05;161.50;;;;;;;-0.27;77.91;99568.24;113521;1200;64484;-76
2021/03/26 04:48:11;;;;;;;287.53;171.33;;;;;;;-0.28;77.70;99561.29;113827;1200;64419;-76
2021/03/26 04:50:45;;;;;;;278.63;170.70;;;;;;;-0.28;77.38;99571.77;113821;1199;64384;-76
2021/03/26 04:53:20;;;;;;;286.80;169.70;;;;;;;-0.29;77.26;99567.39;113832;1200;64387;-76
2021/03/26 04:55:58;;;;;;;278.57;168.40;;;;;;;-0.25;77.33;99566.48;113817;1200;64835;-76
2021/03/26 04:58:32;;;;;;;265.20;159.23;;;;;;;-0.20;77.11;99567.28;113813;1199;64337;-76
2021/03/26 05:01:05;;;;;;;282.40;177.73;;;;;;;-0.13;77.32;99570.66;113800;1200;64323;-75
2021/03/26 05:03:35;;;;;;;284.20;178.50;;;;;;;-0.07;76.81;99566.22;113794;1200;64987;-75
2021/03/26 05:06:16;;;;;;;272.17;172.97;;;;;;;-0.02;77.15;99567.02;113908;1200;64458;-75
2021/03/26 05:08:47;;;;;;;298.27;188.87;;;;;;;0.06;77.25;99566.05;113837;1199;64374;-76
2021/03/26 05:11:15;;;;;;;298.17;189.60;;;;;;;0.15;76.97;99560.64;113630;1199;64503;-76
2021/03/26 05:13:47;;;;;;;294.27;176.73;;;;;;;0.19;76.95;99559.72;113823;1200;64455;-76
2021/03/26 05:16:24;;;;;;;270.77;167.47;;;;;;;0.21;76.68;99564.05;113791;1200;64401;-76
2021/03/26 05:18:59;;;;;;;277.15;175.55;;;;;;;0.30;76.70;99572.66;113806;1200;64506;-76
2021/03/26 05:21:35;;;;;;;293.50;187.15;;;;;;;0.41;76.72;99573.34;113599;1200;64317;-75
2021/03/26 05:24:31;;;;;;;278.93;188.30;;;;;;;0.62;77.27;99570.34;113616;1200;64355;-76
2021/03/26 05:26:59;;;;;;;299.20;191.70;;;;;;;0.82;76.87;99574.39;113824;1199;64451;-76
2021/03/26 05:29:26;;;;;;;260.90;171.10;;;;;;;0.91;76.67;99570.73;113818;1200;64452;-77
2021/03/26 05:32:18;;;;;;;253.30;163.43;;;;;;;0.98;76.60;99573.22;113790;1199;64448;-76
2021/03/26 05:34:50;;;;;;;267.40;171.80;;;;;;;1.04;76.53;99574.85;113788;1200;64410;-76
2021/03/26 05:37:25;;;;;;;276.47;181.00;;;;;;;1.09;76.58;99567.76;113826;1200;64375;-76
2021/03/26 05:40:10;;;;;;;287.57;184.70;;;;;;;1.16;76.37;99573.73;113801;1200;64369;-77
2021/03/26 05:43:14;;;;;;;278.63;185.10;;;;;;;1.23;76.30;99573.59;113823;1199;64371;-76
2021/03/26 05:46:00;;;;;;;287.87;191.90;;;;;;;1.37;76.33;99575.97;113713;1200;64379;-76
2021/03/26 05:48:50;;;;;;;280.33;197.23;;;;;;;1.50;76.03;99576.55;113838;1199;64454;-76
2021/03/26 05:51:30;;;;;;;271.45;176.58;;;;;;;1.68;76.13;99583.19;113928;1199;64397;-76
2021/03/26 05:54:16;;;;;;;;;;;;;;;1.85;76.14;99575.81;113917;1205;64407;-77
2021/03/26 05:57:02;;;;;;;250.20;168.50;;;;;;;2.05;75.86;99575.34;113599;1199;64353;-76
2021/03/26 05:59:35;;;;;;;257.57;183.47;;;;;;;2.22;75.58;99571.48;113831;1199;64416;-76
2021/03/26 06:02:24;;;;;;;261.85;183.25;;;;;;;2.29;75.70;99575.67;113836;1200;64387;-76
2021/03/26 06:04:56;;;;;;;260.53;185.70;;;;;;;2.43;75.84;99578.85;113840;1199;64375;-76
2021/03/26 06:07:29;;;;;;;260.40;185.77;;;;;;;2.61;75.47;99580.17;113859;1198;64387;-76
2021/03/26 06:10:05;;;;;;;258.40;186.10;;;;;;;2.77;75.35;99570.11;113842;1200;64639;-76
2021/03/26 06:12:56;;;;;;;260.33;179.83;;;;;;;2.94;75.50;99572.29;114168;1199;64471;-76
2021/03/26 06:15:38;;;;;;;252.40;186.35;;;;;;;3.19;75.18;99568.09;114238;1199;64384;-76
2021/03/26 06:18:31;;;;;;;258.63;189.40;;;;;;;3.38;74.70;99564.95;113817;1199;64314;-76
2021/03/26 06:21:17;;;;;;;241.73;170.53;;;;;;;3.59;74.85;99572.23;113868;1199;64350;-76
2021/03/26 06:23:50;;;;;;;219.43;158.13;;;;;;;3.76;74.51;99570.86;113903;1200;64381;-76
2021/03/26 06:26:47;;;;;;;235.50;167.00;;;;;;;3.88;74.33;99573.13;113937;1199;64350;-77
2021/03/26 06:29:44;;;;;;;242.73;177.37;;;;;;;4.06;74.34;99572.57;113882;1200;64365;-76
2021/03/26 06:32:49;;;;;;;228.97;155.53;;;;;;;4.28;74.41;99575.38;113849;1199;64375;-77
2021/03/26 06:35:40;;;;;;;216.73;149.37;;;;;;;4.54;74.29;99579.81;113852;1199;64368;-77
2021/03/26 06:38:13;;;;;;;219.07;154.23;;;;;;;4.77;73.99;99571.13;113874;1199;64462;-76
2021/03/26 06:41:29;;;;;;;205.97;145.97;;;;;;;4.95;73.82;99572.28;113620;1200;64423;-76
2021/03/26 06:44:18;;;;;;;216.90;144.87;;;;;;;5.18;73.46;99573.24;113816;1200;64346;-76
2021/03/26 06:47:02;;;;;;;207.80;141.83;;;;;;;5.34;73.25;99565.63;113956;1200;64416;-76
2021/03/26 06:49:51;;;;;;;183.60;129.87;;;;;;;5.43;72.92;99563.52;113610;1199;64355;-76
2021/03/26 06:52:26;;;;;;;157.80;114.80;;;;;;;5.52;72.84;99566.73;113793;1200;64397;-77
2021/03/26 06:54:59;;;;;;;165.37;110.87;;;;;;;5.61;72.96;99566.38;113626;1200;64554;-77
2021/03/26 06:57:51;;;;;;;147.60;106.40;;;;;;;5.74;72.82;99559.73;113796;1200;64420;-77
2021/03/26 07:00:34;;;;;;;155.00;109.10;;;;;;;5.87;72.65;99565.39;113787;1199;64346;-77
2021/03/26 07:03:00;;;;;;;138.20;99.77;;;;;;;5.93;72.44;99568.70;113819;1199;64467;-75
2021/03/26 07:05:45;;;;;;;136.10;98.40;;;;;;;6.01;72.34;99567.55;113831;1200;64414;-77
2021/03/26 07:08:44;;;;;;;139.97;98.80;;;;;;;6.07;72.31;99560.22;113881;1199;64455;-77
2021/03/26 07:11:50;;;;;;;142.53;96.67;;;;;;;6.17;72.13;99554.58;113791;1199;64404;-75
2021/03/26 07:14:32;;;;;;;133.20;94.15;;;;;;;6.28;72.11;99563.80;113842;1199;64372;-76
2021/03/26 07:17:14;;;;;;;130.77;90.13;;;;;;;6.37;71.79;99567.84;113881;1199;64404;-75
2021/03/26 07:20:12;;;;;;;145.40;92.47;;;;;;;6.49;72.07;99563.86;113596;1199;64384;-75
2021/03/26 07:23:04;;;;;;;133.30;93.65;;;;;;;6.65;71.36;99567.59;113757;1200;64400;-76
2021/03/26 07:25:31;;;;;;;128.97;92.20;;;;;;;6.81;71.36;99570.45;113849;1199;64401;-76
2021/03/26 07:28:10;;;;;;;130.23;91.83;;;;;;;6.92;70.97;99565.55;113840;1200;64377;-76
2021/03/26 07:30:48;;;;;;;130.90;96.95;;;;;;;7.08;70.79;99572.84;113873;1199;64378;-76
2021/03/26 07:33:18;;;;;;;137.33;96.60;;;;;;;7.16;70.49;99565.42;113786;1200;64378;-77
2021/03/26 07:36:09;;;;;;;130.95;95.10;;;;;;;7.21;70.20;99563.43;113824;1199;64458;-77
2021/03/26 07:38:43;;;;;;;133.55;95.70;;;;;;;7.32;70.36;99562.95;113768;1200;64333;-77
2021/03/26 07:41:48;;;;;;;125.87;92.60;;;;;;;7.48;70.18;99569.31;113856;1199;64375;-77
2021/03/26 07:45:06;;;;;;;128.77;94.87;;;;;;;7.68;70.04;99571.05;113806;1200;64467;-77
2021/03/26 07:48:05;;;;;;;130.25;98.25;;;;;;;7.85;69.83;99570.28;113657;1200;64391;-77
2021/03/26 07:50:47;;;;;;;144.97;102.00;;;;;;;7.97;70.01;99576.80;113617;1200;64432;-77
2021/03/26 07:53:39;;;;;;;135.10;98.00;;;;;;;8.07;69.92;99573.63;113610;1200;64436;-77
2021/03/26 07:56:32;;;;;;;123.77;91.73;;;;;;;8.23;69.70;99583.53;113855;1199;64362;-77
2021/03/26 07:59:14;;;;;;;136.17;95.60;;;;;;;8.35;69.36;99578.49;113743;1199;64412;-76
2021/03/26 08:01:46;;;;;;;127.30;93.47;;;;;;;8.47;69.03;99578.86;113793;1199;64518;-76
2021/03/26 08:04:23;;;;;;;131.20;98.80;;;;;;;8.61;68.93;99586.14;113794;1200;64461;-76
2021/03/26 08:07:28;;;;;;;140.00;100.10;;;;;;;8.72;68.57;99581.17;113844;1200;64352;-76
2021/03/26 08:10:19;;;;;;;122.53;91.43;;;;;;;8.83;68.46;99576.17;113785;1199;64375;-76
2021/03/26 08:13:24;;;;;;;128.97;91.40;;;;;;;8.97;68.50;99578.13;113794;1199;64356;-79
2021/03/26 08:16:17;;;;;;;117.57;83.77;;;;;;;9.12;68.04;99579.15;113851;1200;64355;-76
2021/03/26 08:18:58;;;;;;;120.33;86.63;;;;;;;9.30;68.04;99582.66;113627;1198;64506;-77
2021/03/26 08:21:41;;;;;;;113.47;85.80;;;;;;;9.48;67.83;99586.13;113577;1198;64369;-77
2021/03/26 08:24:35;;;;;;;108.60;81.17;;;;;;;9.65;67.30;99586.95;113618;1199;64311;-77
2021/03/26 08:27:38;;;;;;;112.55;81.55;;;;;;;9.80;67.27;99587.94;113829;1200;64471;-77
2021/03/26 08:30:41;;;;;;;113.37;81.30;;;;;;;9.91;66.64;99595.34;113807;1199;64493;-76
2021/03/26 08:33:23;;;;;;;121.57;88.30;;;;;;;9.98;66.76;99590.52;113644;1200;64477;-75
2021/03/26 08:36:20;;;;;;;123.97;90.27;;;;;;;10.06;66.56;99593.65;113833;1200;64412;-75
2021/03/26 08:39:03;;;;;;;123.27;88.33;;;;;;;10.17;66.42;99595.72;113878;1200;64372;-77
2021/03/26 08:41:34;;;;;;;116.50;88.17;;;;;;;10.18;65.82;99590.28;113885;1199;64375;-76
2021/03/26 08:44:02;;;;;;;125.00;90.03;;;;;;;10.24;65.78;99597.95;113831;1200;64509;-77
2021/03/26 08:46:36;;;;;;;118.43;89.23;;;;;;;10.33;65.65;99596.60;113880;1200;64454;-77
2021/03/26 08:49:21;;;;;;;122.90;89.30;;;;;;;10.46;65.54;99599.44;113869;1199;64466;-76
2021/03/26 08:52:18;;;;;;;110.83;84.57;;;;;;;10.59;65.09;99596.94;113885;1200;64343;-78
2021/03/26 08:54:56;;;;;;;117.43;86.83;;;;;;;10.72;65.35;99593.47;113850;1198;64406;-75
2021/03/26 08:58:01;;;;;;;109.37;84.03;;;;;;;10.90;65.02;99595.98;113772;1199;64400;-76
2021/03/26 09:00:36;;;;;;;114.67;84.53;;;;;;;10.98;64.55;99585.77;113798;1199;64490;-76
2021/03/26 09:03:41;;;;;;;112.60;81.90;;;;;;;11.08;64.70;99592.23;113836;1198;64480;-76
2021/03/26 09:06:31;;;;;;;103.97;75.63;;;;;;;11.29;64.19;99589.24;113813;1199;64375;-77
2021/03/26 09:09:19;;;;;;;101.65;74.15;;;;;;;11.39;63.68;99585.06;113792;1199;64365;-76
2021/03/26 09:12:08;;;;;;;104.87;77.57;;;;;;;11.48;63.54;99591.64;113782;1200;65017;-77
2021/03/26 09:14:37;;;;;;;93.90;71.70;;;;;;;11.59;63.43;99587.38;113781;1200;64803;-76
2021/03/26 09:17:27;;;;;;;96.90;72.90;;;;;;;11.78;63.38;99586.23;113840;1200;64365;-76
2021/03/26 09:20:12;;;;;;;97.90;72.65;;;;;;;11.90;62.58;99588.19;113835;1200;64491;-76
2021/03/26 09:22:45;;;;;;;88.60;64.75;;;;;;;12.01;62.80;99584.84;113814;1200;64378;-76
2021/03/26 09:25:43;;;;;;;88.37;64.83;;;;;;;12.21;62.70;99583.55;113751;1200;64349;-76
2021/03/26 09:28:32;;;;;;;90.00;65.03;;;;;;;12.37;62.08;99581.59;113808;1200;64397;-76
2021/03/26 09:31:07;;;;;;;84.67;63.87;;;;;;;12.47;61.91;99579.19;113870;1199;64529;-76
2021/03/26 09:33:36;;;;;;;95.10;66.05;;;;;;;12.61;61.74;99573.81;113812;1200;64362;-76
2021/03/26 09:36:06;;;;;;;90.17;64.53;;;;;;;12.73;61.28;99564.95;113813;1199;64304;-76
2021/03/26 09:38:49;;;;;;;85.10;63.30;;;;;;;12.83;60.88;99569.70;113846;1200;64535;-77
2021/03/26 09:41:30;;;;;;;83.33;61.77;;;;;;;12.95;60.80;99566.17;113783;1200;64426;-76
2021/03/26 09:44:23;;;;;;;77.17;57.67;;;;;;;13.10;60.78;99561.62;113833;1199;64395;-76
2021/03/26 09:46:59;;;;;;;76.50;57.87;;;;;;;13.30;60.82;99557.61;113576;1200;64317;-76
2021/03/26 09:49:52;;;;;;;74.67;56.37;;;;;;;13.47;60.55;99549.25;113900;1200;64359;-76
2021/03/26 09:52:38;;;;;;;78.15;57.10;;;;;;;13.61;60.05;99543.80;113820;1200;64503;-76
2021/03/26 09:55:18;;;;;;;77.87;57.87;;;;;;;13.72;59.86;99551.06;113848;1199;64366;-76
2021/03/26 09:57:53;;;;;;;72.13;55.27;;;;;;;13.83;59.65;99544.94;113621;1199;64346;-76
2021/03/26 10:00:41;;;;;;;76.50;56.37;;;;;;;13.97;59.14;99543.94;113855;1200;64381;-77
2021/03/26 10:03:11;;;;;;;74.80;56.13;;;;;;;13.99;58.99;99542.02;113810;1199;64369;-76
2021/03/26 10:05:55;;;;;;;72.18;54.53;;;;;;;14.13;58.87;99541.00;113651;1200;64471;-76
2021/03/26 10:11:25;;;;;;;62.47;48.63;;;;;;;14.42;58.46;99546.91;113811;1199;64367;-76
2021/03/26 10:14:01;;;;;;;63.50;50.50;;;;;;;14.48;57.02;99547.32;113642;1200;64355;-77
2021/03/26 10:16:34;;;;;;;61.80;48.17;;;;;;;14.52;56.65;99545.25;113802;1199;64324;-76
2021/03/26 10:19:07;;;;;;;67.80;53.15;;;;;;;14.55;56.96;99542.38;113835;1199;64519;-76
2021/03/26 10:21:44;;;;;;;66.37;53.10;;;;;;;14.64;56.91;99539.02;113845;1199;64529;-76
2021/03/26 10:24:13;;;;;;;73.40;55.10;;;;;;;14.74;56.91;99536.47;113823;1198;64471;-76
2021/03/26 10:26:40;;;;;;;66.85;50.63;;;;;;;14.84;56.89;99542.02;113864;1200;64349;-76
2021/03/26 10:29:28;;;;;;;68.63;51.80;;;;;;;14.90;56.76;99528.11;113847;1200;64404;-76
2021/03/26 10:32:07;;;;;;;67.40;54.25;;;;;;;14.98;55.85;99533.78;113813;1200;64371;-76
2021/03/26 10:34:37;;;;;;;66.67;50.27;;;;;;;15.04;55.10;99535.98;113793;1200;64838;-77
2021/03/26 10:37:27;;;;;;;66.93;51.53;;;;;;;15.05;54.92;99540.37;113811;1200;64339;-76
2021/03/26 10:40:02;;;;;;;61.20;48.83;;;;;;;15.04;55.03;99529.77;113686;1200;64340;-76
2021/03/26 10:42:41;;;;;;;62.73;48.63;;;;;;;15.16;55.33;99528.80;113865;1198;64364;-75
2021/03/26 10:45:16;;;;;;;66.73;49.67;;;;;;;15.22;54.78;99530.15;113778;1199;64608;-76
2021/03/26 10:47:57;;;;;;;67.40;47.87;;;;;;;15.32;54.12;99533.83;113804;1198;64349;-76
2021/03/26 10:50:44;;;;;;;63.65;51.95;;;;;;;15.29;54.24;99526.02;113821;1200;64346;-76
2021/03/26 10:53:22;;;;;;;60.30;47.55;;;;;;;15.33;53.57;99527.51;113765;1200;64397;-77
2021/03/26 10:55:52;;;;;;;61.10;45.40;;;;;;;15.39;53.64;99523.48;113842;1200;64346;-76
2021/03/26 10:58:32;;;;;;;55.80;44.27;;;;;;;15.44;53.61;99522.14;113801;1199;64359;-76
2021/03/26 11:01:12;;;;;;;56.60;45.30;;;;;;;15.49;53.38;99521.78;113827;1198;64323;-76
2021/03/26 11:03:54;;;;;;;53.73;41.83;;;;;;;15.56;53.17;99520.30;113873;1200;64390;-75
2021/03/26 11:06:27;;;;;;;49.40;38.65;;;;;;;15.66;52.76;99515.06;113907;1199;64375;-76
2021/03/26 11:09:11;;;;;;;51.40;40.70;;;;;;;15.70;52.63;99512.05;113896;1199;64378;-75
2021/03/26 11:12:13;;;;;;;52.27;40.90;;;;;;;15.74;52.03;99504.59;113806;1199;64461;-76
2021/03/26 11:15:06;;;;;;;52.53;42.47;;;;;;;15.85;52.18;99506.41;113837;1200;64374;-76
2021/03/26 11:17:45;;;;;;;54.03;41.93;;;;;;;15.94;51.88;99498.46;113855;1199;64375;-76
2021/03/26 11:20:34;;;;;;;50.20;39.13;;;;;;;16.02;51.86;99500.53;113810;1199;64359;-76
2021/03/26 11:23:27;;;;;;;51.15;40.15;;;;;;;16.10;51.46;99503.45;113827;1199;64471;-76
2021/03/26 11:26:03;;;;;;;51.25;40.70;;;;;;;16.14;50.49;99493.28;113796;1200;64294;-76
2021/03/26 11:28:36;;;;;;;54.87;39.13;;;;;;;16.13;50.97;99487.05;113784;1199;64468;-76
2021/03/26 11:31:25;;;;;;;42.43;33.97;;;;;;;16.17;50.95;99485.84;113612;1200;64382;-78
2021/03/26 11:34:07;;;;;;;47.93;35.50;;;;;;;16.24;51.06;99483.48;113821;1199;64349;-77
2021/03/26 11:36:47;;;;;;;43.23;34.53;;;;;;;16.31;50.52;99487.38;113861;1199;64304;-77
2021/03/26 11:39:27;;;;;;;51.03;39.37;;;;;;;16.25;49.70;99482.52;113827;1200;64368;-77
2021/03/26 11:42:06;;;;;;;43.23;37.17;;;;;;;16.20;49.18;99479.35;113837;1198;64371;-77
2021/03/26 11:44:51;;;;;;;38.20;33.17;;;;;;;16.10;48.86;99475.70;113867;1198;64381;-77
2021/03/26 11:47:31;;;;;;;43.20;35.40;;;;;;;16.02;48.45;99481.71;113676;1199;64475;-78
2021/03/26 11:50:09;;;;;;;46.85;36.80;;;;;;;15.86;48.69;99473.20;113821;1198;64340;-76
2021/03/26 11:52:41;;;;;;;45.27;35.23;;;;;;;15.73;48.16;99466.12;113867;1198;64499;-77
2021/03/26 11:55:29;;;;;;;44.80;34.67;;;;;;;15.67;47.49;99471.11;113804;1198;64371;-77
2021/03/26 11:58:20;;;;;;;44.93;33.47;;;;;;;15.71;48.19;99467.22;113835;1198;64365;-78